sensor_id;sensor_type;location;lat;lon;timestamp;P1;durP1;ratioP1;P2;durP2;ratioP2
17451;SDS011;8843;48.838;9.324;2023-08-17T00:01:07;2.73;;;2.07;;
17451;SDS011;8843;48.838;9.324;2023-08-17T00:03:34;3.27;;;2.47;;
17451;SDS011;8843;48.838;9.324;2023-08-17T00:06:01;2.50;;;2.30;;
17451;SDS011;8843;48.838;9.324;2023-08-17T00:08:28;3.53;;;2.40;;
17451;SDS011;8843;48.838;9.324;2023-08-17T00:10:55;3.07;;;2.20;;
17451;SDS011;8843;48.838;9.324;2023-08-17T00:13:23;4.83;;;2.60;;
17451;SDS011;8843;48.838;9.324;2023-08-17T00:15:50;4.10;;;2.70;;
17451;SDS011;8843;48.838;9.324;2023-08-17T00:18:17;4.73;;;2.67;;
17451;SDS011;8843;48.838;9.324;2023-08-17T00:20:44;4.23;;;2.47;;
17451;SDS011;8843;48.838;9.324;2023-08-17T00:23:11;5.53;;;2.40;;
17451;SDS011;8843;48.838;9.324;2023-08-17T00:25:37;6.97;;;2.90;;
17451;SDS011;8843;48.838;9.324;2023-08-17T00:28:04;3.77;;;2.60;;
17451;SDS011;8843;48.838;9.324;2023-08-17T00:30:33;4.63;;;2.60;;
17451;SDS011;8843;48.838;9.324;2023-08-17T00:33:01;2.97;;;2.67;;
17451;SDS011;8843;48.838;9.324;2023-08-17T00:35:28;5.67;;;2.87;;
17451;SDS011;8843;48.838;9.324;2023-08-17T00:37:55;3.17;;;2.63;;
17451;SDS011;8843;48.838;9.324;2023-08-17T00:40:22;6.47;;;2.57;;
17451;SDS011;8843;48.838;9.324;2023-08-17T00:42:48;3.53;;;2.50;;
17451;SDS011;8843;48.838;9.324;2023-08-17T00:45:15;3.27;;;2.33;;
17451;SDS011;8843;48.838;9.324;2023-08-17T00:47:45;5.40;;;2.80;;
17451;SDS011;8843;48.838;9.324;2023-08-17T00:50:12;2.80;;;2.50;;
17451;SDS011;8843;48.838;9.324;2023-08-17T00:52:41;4.07;;;2.60;;
17451;SDS011;8843;48.838;9.324;2023-08-17T00:55:08;9.13;;;3.13;;
17451;SDS011;8843;48.838;9.324;2023-08-17T00:57:37;4.37;;;2.53;;
17451;SDS011;8843;48.838;9.324;2023-08-17T01:00:06;5.43;;;2.83;;
17451;SDS011;8843;48.838;9.324;2023-08-17T01:02:34;2.80;;;2.47;;
17451;SDS011;8843;48.838;9.324;2023-08-17T01:05:03;4.17;;;2.50;;
17451;SDS011;8843;48.838;9.324;2023-08-17T01:07:31;2.97;;;2.47;;
17451;SDS011;8843;48.838;9.324;2023-08-17T01:09:58;4.17;;;2.50;;
17451;SDS011;8843;48.838;9.324;2023-08-17T01:12:27;3.67;;;2.67;;
17451;SDS011;8843;48.838;9.324;2023-08-17T01:14:59;8.37;;;3.07;;
17451;SDS011;8843;48.838;9.324;2023-08-17T01:17:33;3.40;;;2.63;;
17451;SDS011;8843;48.838;9.324;2023-08-17T01:20:05;4.10;;;2.37;;
17451;SDS011;8843;48.838;9.324;2023-08-17T01:22:34;5.30;;;2.70;;
17451;SDS011;8843;48.838;9.324;2023-08-17T01:25:04;2.30;;;2.10;;
17451;SDS011;8843;48.838;9.324;2023-08-17T01:27:35;5.60;;;3.00;;
17451;SDS011;8843;48.838;9.324;2023-08-17T01:30:04;3.73;;;2.77;;
17451;SDS011;8843;48.838;9.324;2023-08-17T01:32:34;3.07;;;2.77;;
17451;SDS011;8843;48.838;9.324;2023-08-17T01:35:09;5.50;;;2.90;;
17451;SDS011;8843;48.838;9.324;2023-08-17T01:37:56;2.93;;;2.37;;
17451;SDS011;8843;48.838;9.324;2023-08-17T01:40:27;3.43;;;2.50;;
17451;SDS011;8843;48.838;9.324;2023-08-17T01:42:55;5.53;;;2.80;;
17451;SDS011;8843;48.838;9.324;2023-08-17T01:45:23;5.00;;;2.30;;
17451;SDS011;8843;48.838;9.324;2023-08-17T01:47:50;2.90;;;2.60;;
17451;SDS011;8843;48.838;9.324;2023-08-17T01:50:17;3.93;;;2.50;;
17451;SDS011;8843;48.838;9.324;2023-08-17T01:52:44;2.97;;;2.23;;
17451;SDS011;8843;48.838;9.324;2023-08-17T01:55:10;2.57;;;2.30;;
17451;SDS011;8843;48.838;9.324;2023-08-17T01:57:39;4.00;;;2.40;;
17451;SDS011;8843;48.838;9.324;2023-08-17T02:00:06;2.40;;;2.20;;
17451;SDS011;8843;48.838;9.324;2023-08-17T02:02:35;3.40;;;2.50;;
17451;SDS011;8843;48.838;9.324;2023-08-17T02:05:02;3.90;;;2.63;;
17451;SDS011;8843;48.838;9.324;2023-08-17T02:07:30;4.67;;;2.70;;
17451;SDS011;8843;48.838;9.324;2023-08-17T02:09:56;3.27;;;2.30;;
17451;SDS011;8843;48.838;9.324;2023-08-17T02:12:24;3.73;;;2.53;;
17451;SDS011;8843;48.838;9.324;2023-08-17T02:14:52;2.43;;;2.23;;
17451;SDS011;8843;48.838;9.324;2023-08-17T02:17:19;3.27;;;2.30;;
17451;SDS011;8843;48.838;9.324;2023-08-17T02:19:46;4.53;;;2.30;;
17451;SDS011;8843;48.838;9.324;2023-08-17T02:22:13;2.80;;;2.60;;
17451;SDS011;8843;48.838;9.324;2023-08-17T02:24:40;5.17;;;2.23;;
17451;SDS011;8843;48.838;9.324;2023-08-17T02:27:09;3.93;;;2.50;;
17451;SDS011;8843;48.838;9.324;2023-08-17T02:29:36;5.17;;;2.80;;
17451;SDS011;8843;48.838;9.324;2023-08-17T02:32:04;3.43;;;2.40;;
17451;SDS011;8843;48.838;9.324;2023-08-17T02:34:31;4.83;;;2.27;;
17451;SDS011;8843;48.838;9.324;2023-08-17T02:36:58;3.57;;;2.57;;
17451;SDS011;8843;48.838;9.324;2023-08-17T02:39:25;5.30;;;2.50;;
17451;SDS011;8843;48.838;9.324;2023-08-17T02:41:52;4.00;;;2.67;;
17451;SDS011;8843;48.838;9.324;2023-08-17T02:44:20;4.77;;;2.97;;
17451;SDS011;8843;48.838;9.324;2023-08-17T02:46:47;3.27;;;2.50;;
17451;SDS011;8843;48.838;9.324;2023-08-17T02:49:15;5.30;;;2.83;;
17451;SDS011;8843;48.838;9.324;2023-08-17T02:51:42;3.33;;;2.50;;
17451;SDS011;8843;48.838;9.324;2023-08-17T02:54:09;4.17;;;2.73;;
17451;SDS011;8843;48.838;9.324;2023-08-17T02:56:35;7.40;;;2.57;;
17451;SDS011;8843;48.838;9.324;2023-08-17T02:59:02;2.47;;;2.27;;
17451;SDS011;8843;48.838;9.324;2023-08-17T03:01:29;3.33;;;2.70;;
17451;SDS011;8843;48.838;9.324;2023-08-17T03:03:57;3.43;;;2.73;;
17451;SDS011;8843;48.838;9.324;2023-08-17T03:06:25;3.20;;;2.90;;
17451;SDS011;8843;48.838;9.324;2023-08-17T03:08:52;5.17;;;3.33;;
17451;SDS011;8843;48.838;9.324;2023-08-17T03:11:19;4.70;;;3.27;;
17451;SDS011;8843;48.838;9.324;2023-08-17T03:13:46;6.83;;;3.43;;
17451;SDS011;8843;48.838;9.324;2023-08-17T03:16:13;5.10;;;3.43;;
17451;SDS011;8843;48.838;9.324;2023-08-17T03:18:40;4.60;;;3.37;;
17451;SDS011;8843;48.838;9.324;2023-08-17T03:21:08;5.00;;;3.10;;
17451;SDS011;8843;48.838;9.324;2023-08-17T03:23:36;4.50;;;3.60;;
17451;SDS011;8843;48.838;9.324;2023-08-17T03:26:03;4.90;;;3.50;;
17451;SDS011;8843;48.838;9.324;2023-08-17T03:28:30;5.43;;;3.63;;
17451;SDS011;8843;48.838;9.324;2023-08-17T03:30:57;3.47;;;3.17;;
17451;SDS011;8843;48.838;9.324;2023-08-17T03:33:24;4.97;;;3.47;;
17451;SDS011;8843;48.838;9.324;2023-08-17T03:35:51;6.97;;;4.30;;
17451;SDS011;8843;48.838;9.324;2023-08-17T03:38:17;5.57;;;3.87;;
17451;SDS011;8843;48.838;9.324;2023-08-17T03:40:46;7.10;;;4.57;;
17451;SDS011;8843;48.838;9.324;2023-08-17T03:43:13;5.87;;;3.90;;
17451;SDS011;8843;48.838;9.324;2023-08-17T03:45:40;7.73;;;4.50;;
17451;SDS011;8843;48.838;9.324;2023-08-17T03:48:08;5.83;;;3.93;;
17451;SDS011;8843;48.838;9.324;2023-08-17T03:50:35;5.43;;;3.37;;
17451;SDS011;8843;48.838;9.324;2023-08-17T03:53:02;6.57;;;3.90;;
17451;SDS011;8843;48.838;9.324;2023-08-17T03:55:29;5.37;;;4.10;;
17451;SDS011;8843;48.838;9.324;2023-08-17T03:57:57;4.97;;;3.30;;
17451;SDS011;8843;48.838;9.324;2023-08-17T04:00:24;5.47;;;4.20;;
17451;SDS011;8843;48.838;9.324;2023-08-17T04:02:50;5.83;;;4.37;;
17451;SDS011;8843;48.838;9.324;2023-08-17T04:05:17;6.53;;;3.70;;
17451;SDS011;8843;48.838;9.324;2023-08-17T04:07:44;5.03;;;4.13;;
17451;SDS011;8843;48.838;9.324;2023-08-17T04:10:12;6.23;;;3.27;;
17451;SDS011;8843;48.838;9.324;2023-08-17T04:12:39;5.97;;;3.50;;
17451;SDS011;8843;48.838;9.324;2023-08-17T04:15:08;6.30;;;3.07;;
17451;SDS011;8843;48.838;9.324;2023-08-17T04:17:35;5.50;;;3.40;;
17451;SDS011;8843;48.838;9.324;2023-08-17T04:20:02;5.03;;;3.20;;
17451;SDS011;8843;48.838;9.324;2023-08-17T04:22:29;6.07;;;3.40;;
17451;SDS011;8843;48.838;9.324;2023-08-17T04:24:56;5.23;;;3.53;;
17451;SDS011;8843;48.838;9.324;2023-08-17T04:27:23;3.67;;;3.00;;
17451;SDS011;8843;48.838;9.324;2023-08-17T04:29:50;6.33;;;3.43;;
17451;SDS011;8843;48.838;9.324;2023-08-17T04:32:18;6.47;;;3.10;;
17451;SDS011;8843;48.838;9.324;2023-08-17T04:34:45;6.13;;;4.00;;
17451;SDS011;8843;48.838;9.324;2023-08-17T04:37:13;6.03;;;3.87;;
17451;SDS011;8843;48.838;9.324;2023-08-17T04:39:40;5.43;;;4.37;;
17451;SDS011;8843;48.838;9.324;2023-08-17T04:42:08;7.73;;;4.00;;
17451;SDS011;8843;48.838;9.324;2023-08-17T04:44:36;8.37;;;4.97;;
17451;SDS011;8843;48.838;9.324;2023-08-17T04:47:03;7.97;;;4.30;;
17451;SDS011;8843;48.838;9.324;2023-08-17T04:49:31;9.27;;;4.90;;
17451;SDS011;8843;48.838;9.324;2023-08-17T04:51:58;9.77;;;5.77;;
17451;SDS011;8843;48.838;9.324;2023-08-17T04:54:25;8.23;;;5.60;;
17451;SDS011;8843;48.838;9.324;2023-08-17T04:56:52;7.90;;;5.43;;
17451;SDS011;8843;48.838;9.324;2023-08-17T04:59:19;11.83;;;6.73;;
17451;SDS011;8843;48.838;9.324;2023-08-17T05:01:45;8.97;;;5.77;;
17451;SDS011;8843;48.838;9.324;2023-08-17T05:04:12;12.33;;;7.30;;
17451;SDS011;8843;48.838;9.324;2023-08-17T05:06:41;8.73;;;6.47;;
17451;SDS011;8843;48.838;9.324;2023-08-17T05:09:08;10.37;;;5.97;;
17451;SDS011;8843;48.838;9.324;2023-08-17T05:11:35;8.70;;;5.27;;
17451;SDS011;8843;48.838;9.324;2023-08-17T05:14:02;14.93;;;6.43;;
17451;SDS011;8843;48.838;9.324;2023-08-17T05:16:29;9.37;;;5.60;;
17451;SDS011;8843;48.838;9.324;2023-08-17T05:18:56;8.80;;;5.40;;
17451;SDS011;8843;48.838;9.324;2023-08-17T05:21:24;8.57;;;5.17;;
17451;SDS011;8843;48.838;9.324;2023-08-17T05:23:52;12.20;;;5.70;;
17451;SDS011;8843;48.838;9.324;2023-08-17T05:26:19;11.10;;;5.83;;
17451;SDS011;8843;48.838;9.324;2023-08-17T05:28:46;9.70;;;6.80;;
17451;SDS011;8843;48.838;9.324;2023-08-17T05:31:13;9.47;;;6.00;;
17451;SDS011;8843;48.838;9.324;2023-08-17T05:33:40;8.47;;;5.77;;
17451;SDS011;8843;48.838;9.324;2023-08-17T05:36:07;9.13;;;6.10;;
17451;SDS011;8843;48.838;9.324;2023-08-17T05:38:34;9.27;;;6.43;;
17451;SDS011;8843;48.838;9.324;2023-08-17T05:41:02;10.50;;;5.70;;
17451;SDS011;8843;48.838;9.324;2023-08-17T05:43:29;10.63;;;6.83;;
17451;SDS011;8843;48.838;9.324;2023-08-17T05:45:56;6.60;;;5.90;;
17451;SDS011;8843;48.838;9.324;2023-08-17T05:48:24;7.87;;;6.27;;
17451;SDS011;8843;48.838;9.324;2023-08-17T05:50:51;11.67;;;7.40;;
17451;SDS011;8843;48.838;9.324;2023-08-17T05:53:19;8.50;;;6.07;;
17451;SDS011;8843;48.838;9.324;2023-08-17T05:55:46;8.23;;;5.93;;
17451;SDS011;8843;48.838;9.324;2023-08-17T05:58:14;8.77;;;5.87;;
17451;SDS011;8843;48.838;9.324;2023-08-17T06:00:41;9.73;;;7.20;;
17451;SDS011;8843;48.838;9.324;2023-08-17T06:03:08;9.37;;;6.77;;
17451;SDS011;8843;48.838;9.324;2023-08-17T06:05:35;9.07;;;7.40;;
17451;SDS011;8843;48.838;9.324;2023-08-17T06:08:02;11.83;;;8.73;;
17451;SDS011;8843;48.838;9.324;2023-08-17T06:10:30;11.50;;;7.70;;
17451;SDS011;8843;48.838;9.324;2023-08-17T06:12:56;13.53;;;8.90;;
17451;SDS011;8843;48.838;9.324;2023-08-17T06:15:25;8.23;;;6.80;;
17451;SDS011;8843;48.838;9.324;2023-08-17T06:17:52;12.80;;;7.97;;
17451;SDS011;8843;48.838;9.324;2023-08-17T06:20:19;13.20;;;9.30;;
17451;SDS011;8843;48.838;9.324;2023-08-17T06:22:46;10.97;;;8.47;;
17451;SDS011;8843;48.838;9.324;2023-08-17T06:25:14;11.97;;;9.87;;
17451;SDS011;8843;48.838;9.324;2023-08-17T06:27:41;12.63;;;9.57;;
17451;SDS011;8843;48.838;9.324;2023-08-17T06:30:09;13.00;;;9.17;;
17451;SDS011;8843;48.838;9.324;2023-08-17T06:32:38;11.10;;;8.67;;
17451;SDS011;8843;48.838;9.324;2023-08-17T06:35:06;13.00;;;9.20;;
17451;SDS011;8843;48.838;9.324;2023-08-17T06:37:34;12.27;;;8.90;;
17451;SDS011;8843;48.838;9.324;2023-08-17T06:40:01;10.57;;;9.10;;
17451;SDS011;8843;48.838;9.324;2023-08-17T06:42:28;13.73;;;9.40;;
17451;SDS011;8843;48.838;9.324;2023-08-17T06:44:55;19.13;;;9.23;;
17451;SDS011;8843;48.838;9.324;2023-08-17T06:47:22;11.53;;;9.13;;
17451;SDS011;8843;48.838;9.324;2023-08-17T06:49:51;10.63;;;8.93;;
17451;SDS011;8843;48.838;9.324;2023-08-17T06:52:17;14.43;;;10.73;;
17451;SDS011;8843;48.838;9.324;2023-08-17T06:54:44;11.50;;;8.63;;
17451;SDS011;8843;48.838;9.324;2023-08-17T06:57:11;12.03;;;9.63;;
17451;SDS011;8843;48.838;9.324;2023-08-17T06:59:38;11.43;;;9.10;;
17451;SDS011;8843;48.838;9.324;2023-08-17T07:02:05;12.33;;;7.43;;
17451;SDS011;8843;48.838;9.324;2023-08-17T07:04:32;9.77;;;8.03;;
17451;SDS011;8843;48.838;9.324;2023-08-17T07:07:00;10.10;;;8.47;;
17451;SDS011;8843;48.838;9.324;2023-08-17T07:09:27;11.00;;;7.87;;
17451;SDS011;8843;48.838;9.324;2023-08-17T07:11:54;10.57;;;8.03;;
17451;SDS011;8843;48.838;9.324;2023-08-17T07:14:21;9.17;;;8.03;;
17451;SDS011;8843;48.838;9.324;2023-08-17T07:16:48;10.10;;;7.53;;
17451;SDS011;8843;48.838;9.324;2023-08-17T07:19:15;11.70;;;8.27;;
17451;SDS011;8843;48.838;9.324;2023-08-17T07:21:42;11.43;;;8.13;;
17451;SDS011;8843;48.838;9.324;2023-08-17T07:24:13;10.37;;;7.47;;
17451;SDS011;8843;48.838;9.324;2023-08-17T07:26:41;10.07;;;6.93;;
17451;SDS011;8843;48.838;9.324;2023-08-17T07:29:09;8.97;;;7.70;;
17451;SDS011;8843;48.838;9.324;2023-08-17T07:31:36;12.03;;;8.20;;
17451;SDS011;8843;48.838;9.324;2023-08-17T07:34:03;9.70;;;8.00;;
17451;SDS011;8843;48.838;9.324;2023-08-17T07:36:30;10.27;;;7.90;;
17451;SDS011;8843;48.838;9.324;2023-08-17T07:38:58;8.57;;;7.03;;
17451;SDS011;8843;48.838;9.324;2023-08-17T07:41:26;9.37;;;7.53;;
17451;SDS011;8843;48.838;9.324;2023-08-17T07:43:53;9.87;;;7.67;;
17451;SDS011;8843;48.838;9.324;2023-08-17T07:46:20;11.43;;;8.33;;
17451;SDS011;8843;48.838;9.324;2023-08-17T07:48:46;7.77;;;6.77;;
17451;SDS011;8843;48.838;9.324;2023-08-17T07:51:14;9.57;;;7.40;;
17451;SDS011;8843;48.838;9.324;2023-08-17T07:53:41;11.17;;;8.47;;
17451;SDS011;8843;48.838;9.324;2023-08-17T07:56:08;12.33;;;8.50;;
17451;SDS011;8843;48.838;9.324;2023-08-17T07:58:36;9.93;;;7.67;;
17451;SDS011;8843;48.838;9.324;2023-08-17T08:01:03;10.87;;;7.93;;
17451;SDS011;8843;48.838;9.324;2023-08-17T08:03:30;9.03;;;8.13;;
17451;SDS011;8843;48.838;9.324;2023-08-17T08:05:57;8.70;;;7.37;;
17451;SDS011;8843;48.838;9.324;2023-08-17T08:08:24;10.33;;;8.23;;
17451;SDS011;8843;48.838;9.324;2023-08-17T08:10:52;10.70;;;8.20;;
17451;SDS011;8843;48.838;9.324;2023-08-17T08:13:19;8.40;;;7.53;;
17451;SDS011;8843;48.838;9.324;2023-08-17T08:15:47;9.83;;;8.60;;
17451;SDS011;8843;48.838;9.324;2023-08-17T08:18:14;10.27;;;7.80;;
17451;SDS011;8843;48.838;9.324;2023-08-17T08:20:41;9.07;;;8.03;;
17451;SDS011;8843;48.838;9.324;2023-08-17T08:23:08;10.13;;;8.10;;
17451;SDS011;8843;48.838;9.324;2023-08-17T08:25:35;8.53;;;7.63;;
17451;SDS011;8843;48.838;9.324;2023-08-17T08:28:02;7.97;;;6.77;;
17451;SDS011;8843;48.838;9.324;2023-08-17T08:30:29;9.30;;;7.40;;
17451;SDS011;8843;48.838;9.324;2023-08-17T08:32:58;8.47;;;7.47;;
17451;SDS011;8843;48.838;9.324;2023-08-17T08:35:25;10.17;;;7.27;;
17451;SDS011;8843;48.838;9.324;2023-08-17T08:37:52;8.70;;;7.03;;
17451;SDS011;8843;48.838;9.324;2023-08-17T08:40:20;6.63;;;6.00;;
17451;SDS011;8843;48.838;9.324;2023-08-17T08:42:53;7.60;;;6.90;;
17451;SDS011;8843;48.838;9.324;2023-08-17T08:45:20;8.23;;;7.40;;
17451;SDS011;8843;48.838;9.324;2023-08-17T08:47:49;9.67;;;8.03;;
17451;SDS011;8843;48.838;9.324;2023-08-17T08:50:18;10.07;;;8.53;;
17451;SDS011;8843;48.838;9.324;2023-08-17T08:52:49;10.57;;;8.03;;
17451;SDS011;8843;48.838;9.324;2023-08-17T08:55:21;9.20;;;8.30;;
17451;SDS011;8843;48.838;9.324;2023-08-17T08:57:51;10.33;;;8.43;;
17451;SDS011;8843;48.838;9.324;2023-08-17T09:00:19;10.50;;;7.60;;
17451;SDS011;8843;48.838;9.324;2023-08-17T09:02:47;12.47;;;8.40;;
17451;SDS011;8843;48.838;9.324;2023-08-17T09:05:15;9.97;;;7.60;;
17451;SDS011;8843;48.838;9.324;2023-08-17T09:07:44;10.57;;;7.53;;
17451;SDS011;8843;48.838;9.324;2023-08-17T09:10:14;9.73;;;7.97;;
17451;SDS011;8843;48.838;9.324;2023-08-17T09:12:42;9.63;;;8.57;;
17451;SDS011;8843;48.838;9.324;2023-08-17T09:15:09;13.03;;;8.83;;
17451;SDS011;8843;48.838;9.324;2023-08-17T09:17:36;8.00;;;7.00;;
17451;SDS011;8843;48.838;9.324;2023-08-17T09:20:04;10.20;;;8.33;;
17451;SDS011;8843;48.838;9.324;2023-08-17T09:22:36;8.80;;;7.83;;
17451;SDS011;8843;48.838;9.324;2023-08-17T09:25:06;11.90;;;9.37;;
17451;SDS011;8843;48.838;9.324;2023-08-17T09:27:33;10.67;;;8.13;;
17451;SDS011;8843;48.838;9.324;2023-08-17T09:30:02;8.57;;;7.77;;
17451;SDS011;8843;48.838;9.324;2023-08-17T09:32:30;9.40;;;8.13;;
17451;SDS011;8843;48.838;9.324;2023-08-17T09:35:00;8.13;;;6.87;;
17451;SDS011;8843;48.838;9.324;2023-08-17T09:37:27;10.50;;;8.13;;
17451;SDS011;8843;48.838;9.324;2023-08-17T09:39:54;11.17;;;7.80;;
17451;SDS011;8843;48.838;9.324;2023-08-17T09:42:23;8.07;;;6.83;;
17451;SDS011;8843;48.838;9.324;2023-08-17T09:44:50;7.67;;;6.80;;
17451;SDS011;8843;48.838;9.324;2023-08-17T09:47:18;7.97;;;6.43;;
17451;SDS011;8843;48.838;9.324;2023-08-17T09:49:47;7.90;;;7.17;;
17451;SDS011;8843;48.838;9.324;2023-08-17T09:52:15;8.80;;;7.20;;
17451;SDS011;8843;48.838;9.324;2023-08-17T09:54:42;7.13;;;5.97;;
17451;SDS011;8843;48.838;9.324;2023-08-17T09:57:11;8.87;;;6.50;;
17451;SDS011;8843;48.838;9.324;2023-08-17T09:59:40;8.53;;;6.50;;
17451;SDS011;8843;48.838;9.324;2023-08-17T10:02:09;10.57;;;6.83;;
17451;SDS011;8843;48.838;9.324;2023-08-17T10:04:44;8.07;;;7.00;;
17451;SDS011;8843;48.838;9.324;2023-08-17T10:07:15;7.63;;;6.57;;
17451;SDS011;8843;48.838;9.324;2023-08-17T10:09:48;9.43;;;7.03;;
17451;SDS011;8843;48.838;9.324;2023-08-17T10:12:23;9.03;;;7.67;;
17451;SDS011;8843;48.838;9.324;2023-08-17T10:14:58;9.43;;;7.00;;
17451;SDS011;8843;48.838;9.324;2023-08-17T10:17:30;7.73;;;6.93;;
17451;SDS011;8843;48.838;9.324;2023-08-17T10:20:06;7.07;;;6.30;;
17451;SDS011;8843;48.838;9.324;2023-08-17T10:22:36;7.67;;;6.83;;
17451;SDS011;8843;48.838;9.324;2023-08-17T10:25:11;6.63;;;6.03;;
17451;SDS011;8843;48.838;9.324;2023-08-17T10:27:38;7.27;;;6.30;;
17451;SDS011;8843;48.838;9.324;2023-08-17T10:30:08;8.13;;;7.33;;
17451;SDS011;8843;48.838;9.324;2023-08-17T10:32:36;9.30;;;6.33;;
17451;SDS011;8843;48.838;9.324;2023-08-17T10:35:06;9.10;;;7.20;;
17451;SDS011;8843;48.838;9.324;2023-08-17T10:37:34;8.87;;;7.23;;
17451;SDS011;8843;48.838;9.324;2023-08-17T10:40:01;8.30;;;6.30;;
17451;SDS011;8843;48.838;9.324;2023-08-17T10:42:31;9.03;;;7.40;;
17451;SDS011;8843;48.838;9.324;2023-08-17T10:45:00;7.37;;;6.10;;
17451;SDS011;8843;48.838;9.324;2023-08-17T10:47:30;7.23;;;6.53;;
17451;SDS011;8843;48.838;9.324;2023-08-17T10:49:58;7.77;;;6.57;;
17451;SDS011;8843;48.838;9.324;2023-08-17T10:52:28;10.30;;;7.40;;
17451;SDS011;8843;48.838;9.324;2023-08-17T10:54:59;8.27;;;6.73;;
17451;SDS011;8843;48.838;9.324;2023-08-17T10:57:30;8.73;;;5.83;;
17451;SDS011;8843;48.838;9.324;2023-08-17T11:00:14;7.67;;;6.87;;
17451;SDS011;8843;48.838;9.324;2023-08-17T11:02:48;8.13;;;7.00;;
17451;SDS011;8843;48.838;9.324;2023-08-17T11:05:38;7.30;;;6.60;;
17451;SDS011;8843;48.838;9.324;2023-08-17T11:08:07;8.43;;;6.40;;
17451;SDS011;8843;48.838;9.324;2023-08-17T11:10:35;10.37;;;6.67;;
17451;SDS011;8843;48.838;9.324;2023-08-17T11:13:03;8.00;;;6.63;;
17451;SDS011;8843;48.838;9.324;2023-08-17T11:15:35;6.43;;;5.60;;
17451;SDS011;8843;48.838;9.324;2023-08-17T11:18:05;6.90;;;6.23;;
17451;SDS011;8843;48.838;9.324;2023-08-17T11:20:33;8.57;;;6.93;;
17451;SDS011;8843;48.838;9.324;2023-08-17T11:23:00;7.00;;;5.87;;
17451;SDS011;8843;48.838;9.324;2023-08-17T11:25:27;7.10;;;6.40;;
17451;SDS011;8843;48.838;9.324;2023-08-17T11:27:54;6.47;;;5.80;;
17451;SDS011;8843;48.838;9.324;2023-08-17T11:30:21;7.90;;;5.83;;
17451;SDS011;8843;48.838;9.324;2023-08-17T11:32:49;5.93;;;5.40;;
17451;SDS011;8843;48.838;9.324;2023-08-17T11:35:18;6.80;;;5.97;;
17451;SDS011;8843;48.838;9.324;2023-08-17T11:37:46;6.57;;;5.77;;
17451;SDS011;8843;48.838;9.324;2023-08-17T11:40:14;6.80;;;5.90;;
17451;SDS011;8843;48.838;9.324;2023-08-17T11:42:42;6.50;;;5.90;;
17451;SDS011;8843;48.838;9.324;2023-08-17T11:45:09;7.70;;;6.23;;
17451;SDS011;8843;48.838;9.324;2023-08-17T11:47:37;9.37;;;7.03;;
17451;SDS011;8843;48.838;9.324;2023-08-17T11:50:05;8.57;;;6.90;;
17451;SDS011;8843;48.838;9.324;2023-08-17T11:52:34;8.13;;;6.53;;
17451;SDS011;8843;48.838;9.324;2023-08-17T11:55:01;7.20;;;6.47;;
17451;SDS011;8843;48.838;9.324;2023-08-17T11:57:29;8.57;;;7.33;;
17451;SDS011;8843;48.838;9.324;2023-08-17T11:59:56;8.13;;;6.30;;
17451;SDS011;8843;48.838;9.324;2023-08-17T12:02:24;7.20;;;6.00;;
17451;SDS011;8843;48.838;9.324;2023-08-17T12:04:52;7.63;;;6.83;;
17451;SDS011;8843;48.838;9.324;2023-08-17T12:07:23;7.50;;;6.03;;
17451;SDS011;8843;48.838;9.324;2023-08-17T12:09:52;8.23;;;7.33;;
17451;SDS011;8843;48.838;9.324;2023-08-17T12:12:19;10.33;;;6.07;;
17451;SDS011;8843;48.838;9.324;2023-08-17T12:14:48;7.77;;;6.70;;
17451;SDS011;8843;48.838;9.324;2023-08-17T12:17:15;6.93;;;5.93;;
17451;SDS011;8843;48.838;9.324;2023-08-17T12:19:42;7.30;;;6.60;;
17451;SDS011;8843;48.838;9.324;2023-08-17T12:22:09;8.63;;;7.37;;
17451;SDS011;8843;48.838;9.324;2023-08-17T12:24:38;7.30;;;5.87;;
17451;SDS011;8843;48.838;9.324;2023-08-17T12:27:07;8.17;;;7.37;;
17451;SDS011;8843;48.838;9.324;2023-08-17T12:29:34;9.40;;;6.90;;
17451;SDS011;8843;48.838;9.324;2023-08-17T12:32:13;8.10;;;7.30;;
17451;SDS011;8843;48.838;9.324;2023-08-17T12:34:40;8.37;;;7.43;;
17451;SDS011;8843;48.838;9.324;2023-08-17T12:37:07;7.30;;;6.63;;
17451;SDS011;8843;48.838;9.324;2023-08-17T12:39:34;11.27;;;7.70;;
17451;SDS011;8843;48.838;9.324;2023-08-17T12:42:01;8.63;;;7.73;;
17451;SDS011;8843;48.838;9.324;2023-08-17T12:44:30;8.47;;;6.83;;
17451;SDS011;8843;48.838;9.324;2023-08-17T12:46:57;7.87;;;7.07;;
17451;SDS011;8843;48.838;9.324;2023-08-17T12:49:24;8.97;;;7.10;;
17451;SDS011;8843;48.838;9.324;2023-08-17T12:51:50;7.00;;;6.40;;
17451;SDS011;8843;48.838;9.324;2023-08-17T12:54:18;10.70;;;7.40;;
17451;SDS011;8843;48.838;9.324;2023-08-17T12:56:45;10.73;;;6.80;;
17451;SDS011;8843;48.838;9.324;2023-08-17T12:59:12;9.67;;;7.87;;
17451;SDS011;8843;48.838;9.324;2023-08-17T13:01:40;8.00;;;7.20;;
17451;SDS011;8843;48.838;9.324;2023-08-17T13:04:07;7.60;;;6.80;;
17451;SDS011;8843;48.838;9.324;2023-08-17T13:06:34;7.80;;;7.00;;
17451;SDS011;8843;48.838;9.324;2023-08-17T13:09:00;7.17;;;5.87;;
17451;SDS011;8843;48.838;9.324;2023-08-17T13:11:28;10.63;;;6.63;;
17451;SDS011;8843;48.838;9.324;2023-08-17T13:13:54;6.73;;;5.37;;
17451;SDS011;8843;48.838;9.324;2023-08-17T13:16:21;7.63;;;5.40;;
17451;SDS011;8843;48.838;9.324;2023-08-17T13:18:50;5.77;;;5.17;;
17451;SDS011;8843;48.838;9.324;2023-08-17T13:21:17;5.10;;;4.70;;
17451;SDS011;8843;48.838;9.324;2023-08-17T13:23:44;5.27;;;4.77;;
17451;SDS011;8843;48.838;9.324;2023-08-17T13:26:11;6.30;;;5.20;;
17451;SDS011;8843;48.838;9.324;2023-08-17T13:28:38;5.47;;;4.97;;
17451;SDS011;8843;48.838;9.324;2023-08-17T13:31:05;5.27;;;4.77;;
17451;SDS011;8843;48.838;9.324;2023-08-17T13:33:32;4.90;;;4.20;;
17451;SDS011;8843;48.838;9.324;2023-08-17T13:36:00;5.13;;;4.63;;
17451;SDS011;8843;48.838;9.324;2023-08-17T13:38:27;5.07;;;4.60;;
17451;SDS011;8843;48.838;9.324;2023-08-17T13:40:54;4.57;;;4.17;;
17451;SDS011;8843;48.838;9.324;2023-08-17T13:43:21;5.67;;;4.60;;
17451;SDS011;8843;48.838;9.324;2023-08-17T13:45:48;6.00;;;5.37;;
17451;SDS011;8843;48.838;9.324;2023-08-17T13:48:15;5.77;;;5.23;;
17451;SDS011;8843;48.838;9.324;2023-08-17T13:50:42;5.87;;;5.37;;
17451;SDS011;8843;48.838;9.324;2023-08-17T13:53:11;8.70;;;6.20;;
17451;SDS011;8843;48.838;9.324;2023-08-17T13:55:38;7.30;;;5.90;;
17451;SDS011;8843;48.838;9.324;2023-08-17T13:58:05;9.07;;;6.53;;
17451;SDS011;8843;48.838;9.324;2023-08-17T14:00:35;8.50;;;7.07;;
17451;SDS011;8843;48.838;9.324;2023-08-17T14:03:02;7.53;;;6.73;;
17451;SDS011;8843;48.838;9.324;2023-08-17T14:05:29;6.83;;;6.23;;
17451;SDS011;8843;48.838;9.324;2023-08-17T14:07:56;7.60;;;6.80;;
17451;SDS011;8843;48.838;9.324;2023-08-17T14:10:24;7.73;;;6.70;;
17451;SDS011;8843;48.838;9.324;2023-08-17T14:12:51;7.67;;;6.87;;
17451;SDS011;8843;48.838;9.324;2023-08-17T14:15:18;7.90;;;6.63;;
17451;SDS011;8843;48.838;9.324;2023-08-17T14:17:45;9.53;;;6.80;;
17451;SDS011;8843;48.838;9.324;2023-08-17T14:20:12;8.17;;;7.27;;
17451;SDS011;8843;48.838;9.324;2023-08-17T14:22:39;9.50;;;7.73;;
17451;SDS011;8843;48.838;9.324;2023-08-17T14:25:06;8.47;;;7.27;;
17451;SDS011;8843;48.838;9.324;2023-08-17T14:27:35;11.73;;;8.07;;
17451;SDS011;8843;48.838;9.324;2023-08-17T14:30:02;8.07;;;6.83;;
17451;SDS011;8843;48.838;9.324;2023-08-17T14:32:29;8.57;;;7.77;;
17451;SDS011;8843;48.838;9.324;2023-08-17T14:34:56;9.93;;;7.20;;
17451;SDS011;8843;48.838;9.324;2023-08-17T14:37:22;9.00;;;8.10;;
17451;SDS011;8843;48.838;9.324;2023-08-17T14:39:49;10.60;;;6.90;;
17451;SDS011;8843;48.838;9.324;2023-08-17T14:42:16;9.87;;;7.90;;
17451;SDS011;8843;48.838;9.324;2023-08-17T14:44:44;9.00;;;8.20;;
17451;SDS011;8843;48.838;9.324;2023-08-17T14:47:11;8.50;;;7.63;;
17451;SDS011;8843;48.838;9.324;2023-08-17T14:49:38;8.13;;;7.33;;
17451;SDS011;8843;48.838;9.324;2023-08-17T14:52:05;9.57;;;7.13;;
17451;SDS011;8843;48.838;9.324;2023-08-17T14:54:32;7.87;;;6.97;;
17451;SDS011;8843;48.838;9.324;2023-08-17T14:56:59;8.03;;;7.20;;
17451;SDS011;8843;48.838;9.324;2023-08-17T14:59:25;8.43;;;6.87;;
17451;SDS011;8843;48.838;9.324;2023-08-17T15:01:54;8.60;;;6.97;;